sensor_id;sensor_type;location;lat;lon;timestamp;P1;durP1;ratioP1;P2;durP2;ratioP2
51332;SDS011;37417;48.118;11.734;2022-11-20T00:01:28;3.28;;;1.75;;
51332;SDS011;37417;48.118;11.734;2022-11-20T00:04:13;1.17;;;1.05;;
51332;SDS011;37417;48.118;11.734;2022-11-20T00:06:59;1.30;;;1.20;;
51332;SDS011;37417;48.118;11.734;2022-11-20T00:09:45;2.35;;;1.42;;
51332;SDS011;37417;48.118;11.734;2022-11-20T00:12:30;0.90;;;0.90;;
51332;SDS011;37417;48.118;11.734;2022-11-20T00:15:16;3.03;;;1.10;;
51332;SDS011;37417;48.118;11.734;2022-11-20T00:18:02;2.10;;;1.52;;
51332;SDS011;37417;48.118;11.734;2022-11-20T00:20:47;1.58;;;1.48;;
51332;SDS011;37417;48.118;11.734;2022-11-20T00:23:33;1.52;;;1.27;;
51332;SDS011;37417;48.118;11.734;2022-11-20T00:26:19;1.70;;;1.30;;
51332;SDS011;37417;48.118;11.734;2022-11-20T00:29:05;1.95;;;1.73;;
51332;SDS011;37417;48.118;11.734;2022-11-20T00:31:51;2.50;;;1.30;;
51332;SDS011;37417;48.118;11.734;2022-11-20T00:34:36;1.70;;;1.60;;
51332;SDS011;37417;48.118;11.734;2022-11-20T00:37:22;1.30;;;1.20;;
51332;SDS011;37417;48.118;11.734;2022-11-20T00:40:08;1.73;;;1.27;;
51332;SDS011;37417;48.118;11.734;2022-11-20T00:42:53;1.35;;;1.00;;
51332;SDS011;37417;48.118;11.734;2022-11-20T00:45:39;2.53;;;1.35;;
51332;SDS011;37417;48.118;11.734;2022-11-20T00:48:25;3.63;;;1.33;;
51332;SDS011;37417;48.118;11.734;2022-11-20T00:51:12;1.10;;;1.00;;
51332;SDS011;37417;48.118;11.734;2022-11-20T00:53:58;1.30;;;0.95;;
51332;SDS011;37417;48.118;11.734;2022-11-20T00:56:45;2.15;;;1.45;;
51332;SDS011;37417;48.118;11.734;2022-11-20T00:59:30;1.52;;;1.40;;
51332;SDS011;37417;48.118;11.734;2022-11-20T01:02:16;3.00;;;1.40;;
51332;SDS011;37417;48.118;11.734;2022-11-20T01:05:02;4.35;;;1.50;;
51332;SDS011;37417;48.118;11.734;2022-11-20T01:07:47;1.63;;;1.40;;
51332;SDS011;37417;48.118;11.734;2022-11-20T01:10:33;2.47;;;1.48;;
51332;SDS011;37417;48.118;11.734;2022-11-20T01:13:18;3.03;;;1.52;;
51332;SDS011;37417;48.118;11.734;2022-11-20T01:19:09;1.25;;;1.15;;
51332;SDS011;37417;48.118;11.734;2022-11-20T01:21:55;1.25;;;1.10;;
51332;SDS011;37417;48.118;11.734;2022-11-20T01:24:41;1.60;;;1.45;;
51332;SDS011;37417;48.118;11.734;2022-11-20T01:27:26;1.55;;;1.13;;
51332;SDS011;37417;48.118;11.734;2022-11-20T01:30:12;2.03;;;1.52;;
51332;SDS011;37417;48.118;11.734;2022-11-20T01:32:57;4.32;;;2.25;;
51332;SDS011;37417;48.118;11.734;2022-11-20T01:35:43;2.53;;;1.58;;
51332;SDS011;37417;48.118;11.734;2022-11-20T01:38:29;4.18;;;1.05;;
51332;SDS011;37417;48.118;11.734;2022-11-20T01:41:15;2.33;;;1.67;;
51332;SDS011;37417;48.118;11.734;2022-11-20T01:44:21;4.57;;;1.58;;
51332;SDS011;37417;48.118;11.734;2022-11-20T01:47:07;1.10;;;1.00;;
51332;SDS011;37417;48.118;11.734;2022-11-20T01:49:58;2.15;;;1.45;;
51332;SDS011;37417;48.118;11.734;2022-11-20T01:52:49;3.90;;;1.35;;
51332;SDS011;37417;48.118;11.734;2022-11-20T01:55:36;3.13;;;1.40;;
51332;SDS011;37417;48.118;11.734;2022-11-20T01:58:27;2.13;;;1.75;;
51332;SDS011;37417;48.118;11.734;2022-11-20T02:01:13;2.15;;;1.80;;
51332;SDS011;37417;48.118;11.734;2022-11-20T02:03:59;2.75;;;1.27;;
51332;SDS011;37417;48.118;11.734;2022-11-20T02:06:49;1.88;;;1.52;;
51332;SDS011;37417;48.118;11.734;2022-11-20T02:09:36;1.63;;;1.50;;
51332;SDS011;37417;48.118;11.734;2022-11-20T02:12:21;5.75;;;1.45;;
51332;SDS011;37417;48.118;11.734;2022-11-20T02:15:25;5.32;;;2.15;;
51332;SDS011;37417;48.118;11.734;2022-11-20T02:18:11;2.03;;;1.52;;
51332;SDS011;37417;48.118;11.734;2022-11-20T02:21:01;2.08;;;1.45;;
51332;SDS011;37417;48.118;11.734;2022-11-20T02:24:00;2.00;;;1.50;;
51332;SDS011;37417;48.118;11.734;2022-11-20T02:26:59;1.60;;;1.50;;
51332;SDS011;37417;48.118;11.734;2022-11-20T02:29:53;5.53;;;2.38;;
51332;SDS011;37417;48.118;11.734;2022-11-20T02:32:39;2.72;;;1.77;;
51332;SDS011;37417;48.118;11.734;2022-11-20T02:38:10;2.50;;;1.65;;
51332;SDS011;37417;48.118;11.734;2022-11-20T02:40:55;4.97;;;1.73;;
51332;SDS011;37417;48.118;11.734;2022-11-20T02:43:41;3.17;;;1.67;;
51332;SDS011;37417;48.118;11.734;2022-11-20T02:46:26;2.30;;;1.92;;
51332;SDS011;37417;48.118;11.734;2022-11-20T02:49:12;2.10;;;1.67;;
51332;SDS011;37417;48.118;11.734;2022-11-20T02:51:58;2.47;;;1.80;;
51332;SDS011;37417;48.118;11.734;2022-11-20T02:54:43;4.25;;;1.23;;
51332;SDS011;37417;48.118;11.734;2022-11-20T02:57:29;2.00;;;1.80;;
51332;SDS011;37417;48.118;11.734;2022-11-20T03:00:15;2.20;;;2.00;;
51332;SDS011;37417;48.118;11.734;2022-11-20T03:03:00;3.33;;;2.13;;
51332;SDS011;37417;48.118;11.734;2022-11-20T03:05:46;4.00;;;2.00;;
51332;SDS011;37417;48.118;11.734;2022-11-20T03:08:31;1.88;;;1.70;;
51332;SDS011;37417;48.118;11.734;2022-11-20T03:11:17;3.60;;;1.38;;
51332;SDS011;37417;48.118;11.734;2022-11-20T03:14:03;2.97;;;1.90;;
51332;SDS011;37417;48.118;11.734;2022-11-20T03:16:49;1.70;;;1.52;;
51332;SDS011;37417;48.118;11.734;2022-11-20T03:19:34;1.75;;;1.65;;
51332;SDS011;37417;48.118;11.734;2022-11-20T03:22:20;2.95;;;1.70;;
51332;SDS011;37417;48.118;11.734;2022-11-20T03:25:06;1.92;;;1.05;;
51332;SDS011;37417;48.118;11.734;2022-11-20T03:27:51;2.58;;;1.80;;
51332;SDS011;37417;48.118;11.734;2022-11-20T03:30:37;1.60;;;1.42;;
51332;SDS011;37417;48.118;11.734;2022-11-20T03:33:22;3.08;;;1.55;;
51332;SDS011;37417;48.118;11.734;2022-11-20T03:36:09;1.85;;;1.75;;
51332;SDS011;37417;48.118;11.734;2022-11-20T03:38:56;1.33;;;1.23;;
51332;SDS011;37417;48.118;11.734;2022-11-20T03:41:41;2.50;;;1.88;;
51332;SDS011;37417;48.118;11.734;2022-11-20T03:44:27;1.92;;;1.65;;
51332;SDS011;37417;48.118;11.734;2022-11-20T03:47:13;1.88;;;1.60;;
51332;SDS011;37417;48.118;11.734;2022-11-20T03:49:58;2.38;;;1.30;;
51332;SDS011;37417;48.118;11.734;2022-11-20T03:52:44;1.70;;;1.60;;
51332;SDS011;37417;48.118;11.734;2022-11-20T03:55:29;3.53;;;1.45;;
51332;SDS011;37417;48.118;11.734;2022-11-20T03:58:15;1.63;;;1.52;;
51332;SDS011;37417;48.118;11.734;2022-11-20T04:01:04;2.55;;;1.67;;
51332;SDS011;37417;48.118;11.734;2022-11-20T04:03:51;2.00;;;1.75;;
51332;SDS011;37417;48.118;11.734;2022-11-20T04:06:37;2.55;;;1.80;;
51332;SDS011;37417;48.118;11.734;2022-11-20T04:09:23;1.65;;;1.40;;
51332;SDS011;37417;48.118;11.734;2022-11-20T04:12:09;2.78;;;1.30;;
51332;SDS011;37417;48.118;11.734;2022-11-20T04:14:54;0.45;;;0.45;;
51332;SDS011;37417;48.118;11.734;2022-11-20T04:17:40;3.70;;;1.55;;
51332;SDS011;37417;48.118;11.734;2022-11-20T04:20:25;2.35;;;1.90;;
51332;SDS011;37417;48.118;11.734;2022-11-20T04:23:11;3.03;;;2.03;;
51332;SDS011;37417;48.118;11.734;2022-11-20T04:26:03;2.92;;;1.83;;
51332;SDS011;37417;48.118;11.734;2022-11-20T04:28:49;4.00;;;1.88;;
51332;SDS011;37417;48.118;11.734;2022-11-20T04:31:35;5.50;;;1.67;;
51332;SDS011;37417;48.118;11.734;2022-11-20T04:34:20;3.88;;;2.35;;
51332;SDS011;37417;48.118;11.734;2022-11-20T04:37:06;1.77;;;1.58;;
51332;SDS011;37417;48.118;11.734;2022-11-20T04:39:52;1.67;;;1.15;;
51332;SDS011;37417;48.118;11.734;2022-11-20T04:42:37;1.98;;;1.80;;
51332;SDS011;37417;48.118;11.734;2022-11-20T04:45:23;4.88;;;1.98;;
51332;SDS011;37417;48.118;11.734;2022-11-20T04:48:08;2.75;;;1.38;;
51332;SDS011;37417;48.118;11.734;2022-11-20T04:50:54;1.42;;;1.30;;
51332;SDS011;37417;48.118;11.734;2022-11-20T04:53:40;1.13;;;1.10;;
51332;SDS011;37417;48.118;11.734;2022-11-20T04:56:25;2.72;;;1.70;;
51332;SDS011;37417;48.118;11.734;2022-11-20T04:59:11;1.85;;;1.67;;
51332;SDS011;37417;48.118;11.734;2022-11-20T05:01:56;2.88;;;1.70;;
51332;SDS011;37417;48.118;11.734;2022-11-20T05:04:42;1.08;;;0.95;;
51332;SDS011;37417;48.118;11.734;2022-11-20T05:07:27;1.80;;;1.58;;
51332;SDS011;37417;48.118;11.734;2022-11-20T05:10:13;2.47;;;1.48;;
51332;SDS011;37417;48.118;11.734;2022-11-20T05:12:58;1.83;;;1.38;;
51332;SDS011;37417;48.118;11.734;2022-11-20T05:15:44;2.03;;;1.65;;
51332;SDS011;37417;48.118;11.734;2022-11-20T05:18:29;1.75;;;1.58;;
51332;SDS011;37417;48.118;11.734;2022-11-20T05:21:15;1.58;;;1.48;;
51332;SDS011;37417;48.118;11.734;2022-11-20T05:24:01;1.77;;;1.42;;
51332;SDS011;37417;48.118;11.734;2022-11-20T05:26:47;1.92;;;1.58;;
51332;SDS011;37417;48.118;11.734;2022-11-20T05:29:32;1.70;;;1.60;;
51332;SDS011;37417;48.118;11.734;2022-11-20T05:32:18;3.17;;;1.67;;
51332;SDS011;37417;48.118;11.734;2022-11-20T05:35:03;1.55;;;1.38;;
51332;SDS011;37417;48.118;11.734;2022-11-20T05:37:49;2.05;;;1.40;;
51332;SDS011;37417;48.118;11.734;2022-11-20T05:40:35;4.22;;;1.50;;
51332;SDS011;37417;48.118;11.734;2022-11-20T05:43:20;4.30;;;1.60;;
51332;SDS011;37417;48.118;11.734;2022-11-20T05:46:06;1.25;;;1.15;;
51332;SDS011;37417;48.118;11.734;2022-11-20T05:48:52;2.28;;;1.58;;
51332;SDS011;37417;48.118;11.734;2022-11-20T05:51:38;1.77;;;1.63;;
51332;SDS011;37417;48.118;11.734;2022-11-20T05:54:24;2.47;;;1.67;;
51332;SDS011;37417;48.118;11.734;2022-11-20T05:57:09;2.28;;;1.65;;
51332;SDS011;37417;48.118;11.734;2022-11-20T05:59:55;1.70;;;1.35;;
51332;SDS011;37417;48.118;11.734;2022-11-20T06:02:40;2.08;;;1.88;;
51332;SDS011;37417;48.118;11.734;2022-11-20T06:05:26;3.25;;;1.60;;
51332;SDS011;37417;48.118;11.734;2022-11-20T06:08:11;1.67;;;0.93;;
51332;SDS011;37417;48.118;11.734;2022-11-20T06:10:57;2.30;;;1.75;;
51332;SDS011;37417;48.118;11.734;2022-11-20T06:13:42;1.80;;;1.27;;
51332;SDS011;37417;48.118;11.734;2022-11-20T06:16:28;2.22;;;1.70;;
51332;SDS011;37417;48.118;11.734;2022-11-20T06:19:14;5.72;;;1.80;;
51332;SDS011;37417;48.118;11.734;2022-11-20T06:22:00;1.80;;;1.48;;
51332;SDS011;37417;48.118;11.734;2022-11-20T06:24:45;3.20;;;1.95;;
51332;SDS011;37417;48.118;11.734;2022-11-20T06:27:31;2.28;;;1.70;;
51332;SDS011;37417;48.118;11.734;2022-11-20T06:30:16;2.97;;;1.95;;
51332;SDS011;37417;48.118;11.734;2022-11-20T06:33:02;2.80;;;1.58;;
51332;SDS011;37417;48.118;11.734;2022-11-20T06:35:48;1.77;;;1.38;;
51332;SDS011;37417;48.118;11.734;2022-11-20T06:38:33;3.08;;;1.77;;
51332;SDS011;37417;48.118;11.734;2022-11-20T06:41:19;1.95;;;1.80;;
51332;SDS011;37417;48.118;11.734;2022-11-20T06:44:05;3.85;;;2.00;;
51332;SDS011;37417;48.118;11.734;2022-11-20T06:46:51;2.50;;;1.63;;
51332;SDS011;37417;48.118;11.734;2022-11-20T06:49:36;1.77;;;1.15;;
51332;SDS011;37417;48.118;11.734;2022-11-20T06:52:23;1.35;;;0.95;;
51332;SDS011;37417;48.118;11.734;2022-11-20T06:55:09;1.83;;;1.52;;
51332;SDS011;37417;48.118;11.734;2022-11-20T06:57:54;4.15;;;1.33;;
51332;SDS011;37417;48.118;11.734;2022-11-20T07:00:40;1.45;;;1.35;;
51332;SDS011;37417;48.118;11.734;2022-11-20T07:03:25;1.33;;;0.88;;
51332;SDS011;37417;48.118;11.734;2022-11-20T07:06:11;1.38;;;1.27;;
51332;SDS011;37417;48.118;11.734;2022-11-20T07:08:56;1.48;;;1.38;;
51332;SDS011;37417;48.118;11.734;2022-11-20T07:11:42;1.88;;;1.20;;
51332;SDS011;37417;48.118;11.734;2022-11-20T07:14:27;1.30;;;1.20;;
51332;SDS011;37417;48.118;11.734;2022-11-20T07:17:14;1.30;;;1.20;;
51332;SDS011;37417;48.118;11.734;2022-11-20T07:19:59;2.05;;;1.50;;
51332;SDS011;37417;48.118;11.734;2022-11-20T07:22:45;1.63;;;1.45;;
51332;SDS011;37417;48.118;11.734;2022-11-20T07:25:30;1.60;;;1.27;;
51332;SDS011;37417;48.118;11.734;2022-11-20T07:28:16;2.13;;;1.83;;
51332;SDS011;37417;48.118;11.734;2022-11-20T07:31:02;1.95;;;1.83;;
51332;SDS011;37417;48.118;11.734;2022-11-20T07:33:47;1.60;;;1.17;;
51332;SDS011;37417;48.118;11.734;2022-11-20T07:36:33;3.05;;;2.03;;
51332;SDS011;37417;48.118;11.734;2022-11-20T07:39:19;2.47;;;1.67;;
51332;SDS011;37417;48.118;11.734;2022-11-20T07:42:05;1.38;;;1.27;;
51332;SDS011;37417;48.118;11.734;2022-11-20T07:44:51;5.03;;;1.77;;
51332;SDS011;37417;48.118;11.734;2022-11-20T07:47:36;2.30;;;1.63;;
51332;SDS011;37417;48.118;11.734;2022-11-20T07:50:22;3.47;;;1.88;;
51332;SDS011;37417;48.118;11.734;2022-11-20T07:53:07;3.95;;;1.67;;
51332;SDS011;37417;48.118;11.734;2022-11-20T07:55:53;2.25;;;1.45;;
51332;SDS011;37417;48.118;11.734;2022-11-20T07:58:39;1.90;;;1.75;;
51332;SDS011;37417;48.118;11.734;2022-11-20T08:01:24;1.92;;;1.25;;
51332;SDS011;37417;48.118;11.734;2022-11-20T08:04:10;2.10;;;1.55;;
51332;SDS011;37417;48.118;11.734;2022-11-20T08:06:56;2.35;;;1.10;;
51332;SDS011;37417;48.118;11.734;2022-11-20T08:09:42;1.40;;;1.15;;
51332;SDS011;37417;48.118;11.734;2022-11-20T08:12:27;1.60;;;1.45;;
51332;SDS011;37417;48.118;11.734;2022-11-20T08:15:31;1.60;;;1.40;;
51332;SDS011;37417;48.118;11.734;2022-11-20T08:18:17;0.90;;;0.85;;
51332;SDS011;37417;48.118;11.734;2022-11-20T08:21:03;1.25;;;0.77;;
51332;SDS011;37417;48.118;11.734;2022-11-20T08:23:49;2.55;;;1.38;;
51332;SDS011;37417;48.118;11.734;2022-11-20T08:26:35;0.80;;;0.80;;
51332;SDS011;37417;48.118;11.734;2022-11-20T08:29:22;4.35;;;1.27;;
51332;SDS011;37417;48.118;11.734;2022-11-20T08:32:08;1.95;;;0.80;;
51332;SDS011;37417;48.118;11.734;2022-11-20T08:34:53;1.10;;;1.00;;
51332;SDS011;37417;48.118;11.734;2022-11-20T08:37:40;4.05;;;1.58;;
51332;SDS011;37417;48.118;11.734;2022-11-20T08:40:26;1.40;;;1.00;;
51332;SDS011;37417;48.118;11.734;2022-11-20T08:43:12;2.25;;;1.45;;
51332;SDS011;37417;48.118;11.734;2022-11-20T08:45:57;3.10;;;0.88;;
51332;SDS011;37417;48.118;11.734;2022-11-20T08:48:43;1.38;;;1.23;;
51332;SDS011;37417;48.118;11.734;2022-11-20T08:51:29;1.00;;;1.00;;
51332;SDS011;37417;48.118;11.734;2022-11-20T08:54:14;1.05;;;0.98;;
51332;SDS011;37417;48.118;11.734;2022-11-20T08:57:00;1.70;;;1.30;;
51332;SDS011;37417;48.118;11.734;2022-11-20T08:59:46;1.83;;;1.20;;
51332;SDS011;37417;48.118;11.734;2022-11-20T09:02:31;1.20;;;1.00;;
51332;SDS011;37417;48.118;11.734;2022-11-20T09:05:17;1.17;;;0.68;;
51332;SDS011;37417;48.118;11.734;2022-11-20T09:08:03;3.08;;;1.52;;
51332;SDS011;37417;48.118;11.734;2022-11-20T09:10:51;2.20;;;1.42;;
51332;SDS011;37417;48.118;11.734;2022-11-20T09:13:36;1.27;;;0.85;;
51332;SDS011;37417;48.118;11.734;2022-11-20T09:16:22;1.27;;;1.17;;
51332;SDS011;37417;48.118;11.734;2022-11-20T09:19:08;1.23;;;1.10;;
51332;SDS011;37417;48.118;11.734;2022-11-20T09:21:53;2.92;;;1.15;;
51332;SDS011;37417;48.118;11.734;2022-11-20T09:24:39;0.85;;;0.63;;
51332;SDS011;37417;48.118;11.734;2022-11-20T09:27:24;0.85;;;0.70;;
51332;SDS011;37417;48.118;11.734;2022-11-20T09:30:10;2.40;;;1.33;;
51332;SDS011;37417;48.118;11.734;2022-11-20T09:32:56;0.70;;;0.70;;
51332;SDS011;37417;48.118;11.734;2022-11-20T09:35:42;2.45;;;1.17;;
51332;SDS011;37417;48.118;11.734;2022-11-20T09:38:28;1.08;;;0.82;;
51332;SDS011;37417;48.118;11.734;2022-11-20T09:55:23;1.70;;;0.77;;
51332;SDS011;37417;48.118;11.734;2022-11-20T09:58:15;1.40;;;0.60;;
51332;SDS011;37417;48.118;11.734;2022-11-20T10:01:12;4.13;;;0.70;;
51332;SDS011;37417;48.118;11.734;2022-11-20T10:04:01;4.50;;;1.00;;
51332;SDS011;37417;48.118;11.734;2022-11-20T10:07:02;1.67;;;0.40;;
51332;SDS011;37417;48.118;11.734;2022-11-20T10:09:53;0.57;;;0.57;;
51332;SDS011;37417;48.118;11.734;2022-11-20T10:24:29;1.13;;;0.95;;
51332;SDS011;37417;48.118;11.734;2022-11-20T10:30:14;0.63;;;0.50;;
51332;SDS011;37417;48.118;11.734;2022-11-20T10:33:13;1.20;;;0.75;;
51332;SDS011;37417;48.118;11.734;2022-11-20T10:36:05;1.50;;;0.90;;
51332;SDS011;37417;48.118;11.734;2022-11-20T10:38:58;1.40;;;0.85;;
51332;SDS011;37417;48.118;11.734;2022-11-20T10:41:44;0.85;;;0.70;;
51332;SDS011;37417;48.118;11.734;2022-11-20T10:44:32;0.60;;;0.60;;
51332;SDS011;37417;48.118;11.734;2022-11-20T10:47:37;0.57;;;0.57;;
51332;SDS011;37417;48.118;11.734;2022-11-20T10:50:23;0.85;;;0.50;;
51332;SDS011;37417;48.118;11.734;2022-11-20T10:53:15;1.70;;;0.90;;
51332;SDS011;37417;48.118;11.734;2022-11-20T10:56:05;1.35;;;0.65;;
51332;SDS011;37417;48.118;11.734;2022-11-20T11:01:40;0.75;;;0.50;;
51332;SDS011;37417;48.118;11.734;2022-11-20T11:04:32;1.48;;;0.70;;
51332;SDS011;37417;48.118;11.734;2022-11-20T11:07:30;0.70;;;0.70;;
51332;SDS011;37417;48.118;11.734;2022-11-20T11:10:19;1.90;;;0.47;;
51332;SDS011;37417;48.118;11.734;2022-11-20T11:13:06;0.63;;;0.55;;
51332;SDS011;37417;48.118;11.734;2022-11-20T11:15:52;0.93;;;0.50;;
51332;SDS011;37417;48.118;11.734;2022-11-20T11:18:37;3.45;;;0.75;;
51332;SDS011;37417;48.118;11.734;2022-11-20T11:21:23;2.33;;;0.80;;
51332;SDS011;37417;48.118;11.734;2022-11-20T11:24:15;0.50;;;0.50;;
51332;SDS011;37417;48.118;11.734;2022-11-20T11:27:10;0.60;;;0.50;;
51332;SDS011;37417;48.118;11.734;2022-11-20T11:30:16;0.77;;;0.77;;
51332;SDS011;37417;48.118;11.734;2022-11-20T11:33:02;0.60;;;0.50;;
51332;SDS011;37417;48.118;11.734;2022-11-20T11:35:52;0.63;;;0.45;;
51332;SDS011;37417;48.118;11.734;2022-11-20T11:38:41;1.23;;;0.70;;
51332;SDS011;37417;48.118;11.734;2022-11-20T11:41:30;0.98;;;0.43;;
51332;SDS011;37417;48.118;11.734;2022-11-20T11:44:18;0.70;;;0.70;;
51332;SDS011;37417;48.118;11.734;2022-11-20T11:47:29;0.82;;;0.40;;
51332;SDS011;37417;48.118;11.734;2022-11-20T11:53:09;0.55;;;0.50;;
51332;SDS011;37417;48.118;11.734;2022-11-20T11:56:08;0.60;;;0.57;;
51332;SDS011;37417;48.118;11.734;2022-11-20T11:58:54;1.02;;;0.85;;
51332;SDS011;37417;48.118;11.734;2022-11-20T12:01:46;0.98;;;0.88;;
51332;SDS011;37417;48.118;11.734;2022-11-20T12:07:32;0.73;;;0.70;;
51332;SDS011;37417;48.118;11.734;2022-11-20T12:10:21;0.98;;;0.52;;
51332;SDS011;37417;48.118;11.734;2022-11-20T12:15:56;1.67;;;0.82;;
51332;SDS011;37417;48.118;11.734;2022-11-20T12:18:41;0.40;;;0.40;;
51332;SDS011;37417;48.118;11.734;2022-11-20T12:30:12;4.10;;;1.25;;
51332;SDS011;37417;48.118;11.734;2022-11-20T12:36:07;0.38;;;0.38;;
51332;SDS011;37417;48.118;11.734;2022-11-20T12:39:03;1.25;;;1.15;;
51332;SDS011;37417;48.118;11.734;2022-11-20T12:45:14;1.15;;;0.95;;
51332;SDS011;37417;48.118;11.734;2022-11-20T13:08:00;0.88;;;0.88;;
51332;SDS011;37417;48.118;11.734;2022-11-20T13:19:40;0.80;;;0.80;;
51332;SDS011;37417;48.118;11.734;2022-11-20T13:22:42;2.17;;;1.42;;
51332;SDS011;37417;48.118;11.734;2022-11-20T13:25:35;0.30;;;0.30;;
51332;SDS011;37417;48.118;11.734;2022-11-20T13:31:10;3.80;;;1.13;;
51332;SDS011;37417;48.118;11.734;2022-11-20T13:34:11;1.65;;;0.50;;
51332;SDS011;37417;48.118;11.734;2022-11-20T13:36:57;1.58;;;0.90;;
51332;SDS011;37417;48.118;11.734;2022-11-20T13:39:43;1.40;;;0.93;;
51332;SDS011;37417;48.118;11.734;2022-11-20T13:42:29;0.75;;;0.70;;
51332;SDS011;37417;48.118;11.734;2022-11-20T13:45:25;0.80;;;0.80;;
51332;SDS011;37417;48.118;11.734;2022-11-20T13:48:19;0.80;;;0.80;;
51332;SDS011;37417;48.118;11.734;2022-11-20T13:54:18;1.20;;;1.10;;
51332;SDS011;37417;48.118;11.734;2022-11-20T14:00:15;0.73;;;0.60;;
51332;SDS011;37417;48.118;11.734;2022-11-20T14:06:11;1.25;;;0.93;;
51332;SDS011;37417;48.118;11.734;2022-11-20T14:08:55;2.78;;;0.82;;
51332;SDS011;37417;48.118;11.734;2022-11-20T14:11:47;3.00;;;0.68;;
51332;SDS011;37417;48.118;11.734;2022-11-20T14:14:33;2.63;;;0.98;;
51332;SDS011;37417;48.118;11.734;2022-11-20T14:20:05;2.25;;;1.00;;
51332;SDS011;37417;48.118;11.734;2022-11-20T14:22:52;1.60;;;1.33;;
51332;SDS011;37417;48.118;11.734;2022-11-20T14:25:41;1.02;;;0.70;;
51332;SDS011;37417;48.118;11.734;2022-11-20T14:28:28;1.10;;;0.88;;
51332;SDS011;37417;48.118;11.734;2022-11-20T14:31:18;0.82;;;0.82;;
51332;SDS011;37417;48.118;11.734;2022-11-20T14:34:05;2.20;;;1.10;;
51332;SDS011;37417;48.118;11.734;2022-11-20T14:36:55;1.08;;;0.98;;
51332;SDS011;37417;48.118;11.734;2022-11-20T14:39:42;2.03;;;1.00;;
51332;SDS011;37417;48.118;11.734;2022-11-20T14:42:28;1.65;;;1.10;;
51332;SDS011;37417;48.118;11.734;2022-11-20T14:45:14;3.03;;;1.08;;
51332;SDS011;37417;48.118;11.734;2022-11-20T14:47:59;1.30;;;1.10;;
51332;SDS011;37417;48.118;11.734;2022-11-20T14:50:45;2.05;;;0.90;;
51332;SDS011;37417;48.118;11.734;2022-11-20T14:53:31;1.10;;;0.73;;
51332;SDS011;37417;48.118;11.734;2022-11-20T14:56:21;1.13;;;1.02;;
51332;SDS011;37417;48.118;11.734;2022-11-20T14:59:07;1.55;;;1.10;;
51332;SDS011;37417;48.118;11.734;2022-11-20T15:02:28;1.48;;;1.02;;
51332;SDS011;37417;48.118;11.734;2022-11-20T15:05:05;0.93;;;0.85;;
51332;SDS011;37417;48.118;11.734;2022-11-20T15:07:52;0.82;;;0.82;;
51332;SDS011;37417;48.118;11.734;2022-11-20T15:10:50;0.60;;;0.60;;
51332;SDS011;37417;48.118;11.734;2022-11-20T15:13:36;1.23;;;0.50;;
51332;SDS011;37417;48.118;11.734;2022-11-20T15:16:22;0.50;;;0.50;;
51332;SDS011;37417;48.118;11.734;2022-11-20T15:19:13;1.00;;;0.55;;
51332;SDS011;37417;48.118;11.734;2022-11-20T15:22:01;0.70;;;0.70;;
51332;SDS011;37417;48.118;11.734;2022-11-20T15:24:47;1.10;;;0.52;;
51332;SDS011;37417;48.118;11.734;2022-11-20T15:27:32;0.68;;;0.50;;
51332;SDS011;37417;48.118;11.734;2022-11-20T15:30:18;0.50;;;0.47;;
51332;SDS011;37417;48.118;11.734;2022-11-20T15:33:04;0.60;;;0.52;;
51332;SDS011;37417;48.118;11.734;2022-11-20T15:35:52;0.60;;;0.50;;
51332;SDS011;37417;48.118;11.734;2022-11-20T15:38:38;1.73;;;0.90;;
51332;SDS011;37417;48.118;11.734;2022-11-20T15:41:23;1.95;;;0.60;;
51332;SDS011;37417;48.118;11.734;2022-11-20T15:44:09;0.88;;;0.63;;
51332;SDS011;37417;48.118;11.734;2022-11-20T15:46:54;0.45;;;0.45;;
51332;SDS011;37417;48.118;11.734;2022-11-20T15:49:40;1.77;;;0.43;;
51332;SDS011;37417;48.118;11.734;2022-11-20T15:52:26;0.32;;;0.32;;
51332;SDS011;37417;48.118;11.734;2022-11-20T15:55:11;0.68;;;0.68;;
51332;SDS011;37417;48.118;11.734;2022-11-20T15:57:57;1.83;;;0.80;;
51332;SDS011;37417;48.118;11.734;2022-11-20T16:00:42;0.60;;;0.60;;
51332;SDS011;37417;48.118;11.734;2022-11-20T16:03:28;1.42;;;0.90;;
51332;SDS011;37417;48.118;11.734;2022-11-20T16:06:14;0.95;;;0.90;;
51332;SDS011;37417;48.118;11.734;2022-11-20T16:09:01;2.15;;;1.05;;
51332;SDS011;37417;48.118;11.734;2022-11-20T16:11:46;3.60;;;1.67;;
51332;SDS011;37417;48.118;11.734;2022-11-20T16:14:32;1.05;;;1.00;;
51332;SDS011;37417;48.118;11.734;2022-11-20T16:17:36;2.47;;;1.23;;
51332;SDS011;37417;48.118;11.734;2022-11-20T16:20:28;2.13;;;1.57;;
51332;SDS011;37417;48.118;11.734;2022-11-20T16:23:14;1.15;;;1.00;;
51332;SDS011;37417;48.118;11.734;2022-11-20T16:26:08;1.92;;;1.08;;
51332;SDS011;37417;48.118;11.734;2022-11-20T16:28:54;1.23;;;0.98;;
51332;SDS011;37417;48.118;11.734;2022-11-20T16:31:39;2.67;;;0.80;;
51332;SDS011;37417;48.118;11.734;2022-11-20T16:34:25;2.83;;;1.52;;
51332;SDS011;37417;48.118;11.734;2022-11-20T16:37:10;1.00;;;0.85;;
51332;SDS011;37417;48.118;11.734;2022-11-20T16:39:56;1.25;;;1.13;;
51332;SDS011;37417;48.118;11.734;2022-11-20T16:42:41;1.55;;;1.45;;
51332;SDS011;37417;48.118;11.734;2022-11-20T16:45:27;2.75;;;1.40;;
51332;SDS011;37417;48.118;11.734;2022-11-20T16:48:14;2.55;;;1.48;;
51332;SDS011;37417;48.118;11.734;2022-11-20T16:50:59;2.03;;;1.45;;
51332;SDS011;37417;48.118;11.734;2022-11-20T16:53:45;2.50;;;1.52;;
51332;SDS011;37417;48.118;11.734;2022-11-20T16:56:31;2.75;;;1.92;;
51332;SDS011;37417;48.118;11.734;2022-11-20T16:59:16;2.75;;;1.67;;
51332;SDS011;37417;48.118;11.734;2022-11-20T17:02:02;4.20;;;2.15;;
51332;SDS011;37417;48.118;11.734;2022-11-20T17:04:47;4.10;;;1.98;;
51332;SDS011;37417;48.118;11.734;2022-11-20T17:07:33;2.20;;;1.77;;
51332;SDS011;37417;48.118;11.734;2022-11-20T17:10:18;2.22;;;1.80;;
51332;SDS011;37417;48.118;11.734;2022-11-20T17:13:04;2.35;;;1.73;;
51332;SDS011;37417;48.118;11.734;2022-11-20T17:15:50;3.05;;;1.92;;
51332;SDS011;37417;48.118;11.734;2022-11-20T17:18:35;3.83;;;2.42;;
51332;SDS011;37417;48.118;11.734;2022-11-20T17:21:21;5.85;;;2.75;;
51332;SDS011;37417;48.118;11.734;2022-11-20T17:24:07;2.75;;;2.10;;
51332;SDS011;37417;48.118;11.734;2022-11-20T17:26:53;5.00;;;2.95;;
51332;SDS011;37417;48.118;11.734;2022-11-20T17:29:39;4.47;;;2.90;;
51332;SDS011;37417;48.118;11.734;2022-11-20T17:32:24;5.78;;;2.55;;
51332;SDS011;37417;48.118;11.734;2022-11-20T17:35:10;3.50;;;2.50;;
51332;SDS011;37417;48.118;11.734;2022-11-20T17:37:55;3.45;;;2.20;;
51332;SDS011;37417;48.118;11.734;2022-11-20T17:40:41;3.05;;;1.80;;
51332;SDS011;37417;48.118;11.734;2022-11-20T17:43:26;3.67;;;1.95;;
51332;SDS011;37417;48.118;11.734;2022-11-20T17:46:13;4.78;;;1.95;;
51332;SDS011;37417;48.118;11.734;2022-11-20T17:48:59;1.73;;;1.35;;
51332;SDS011;37417;48.118;11.734;2022-11-20T17:51:45;3.78;;;1.92;;
51332;SDS011;37417;48.118;11.734;2022-11-20T17:54:30;3.17;;;1.70;;
51332;SDS011;37417;48.118;11.734;2022-11-20T17:57:16;5.90;;;2.17;;
51332;SDS011;37417;48.118;11.734;2022-11-20T18:00:40;6.93;;;3.63;;
51332;SDS011;37417;48.118;11.734;2022-11-20T18:03:25;5.32;;;3.25;;
51332;SDS011;37417;48.118;11.734;2022-11-20T18:06:12;4.68;;;3.05;;
51332;SDS011;37417;48.118;11.734;2022-11-20T18:08:58;5.45;;;3.13;;
51332;SDS011;37417;48.118;11.734;2022-11-20T18:11:44;5.53;;;2.70;;
51332;SDS011;37417;48.118;11.734;2022-11-20T18:14:29;4.28;;;1.95;;
51332;SDS011;37417;48.118;11.734;2022-11-20T18:17:18;5.68;;;3.03;;